Wilson Commons Park, Washoe Valley, Nevada Weather observations

Data are for 10 minute period ending at time listed.
 Day   Time   Solar   Ave.   Ave.  Ave.  Vector  Max.   Baro.   Total    
  of    of     Rad.   Air    Rel.  Wind   Wind   Wind  Press.  Precip.   
Year   Day            Temp.  Hum.  Speed  Dir.   Gust                    
2020   (PST)  Kw/m2    F      %     mph   deg.    mph    mb.     in.     
-------------------------------------------------------------------------
 152   11:10   1.00   63.2    39    0.0   346     0.0   99999.0    0.00 
 152   11:20   1.02   64.1    39    0.0   346     0.0   99999.0    0.00 
 152   11:30   1.04   65.3    36    0.0   331     0.0   99999.0    0.00 
 152   11:40   1.04   64.5    39    0.0   340     0.0   99999.0    0.00 
 152   11:50   1.02   64.5    37    0.0   332     0.0   99999.0    0.00 
 152   12:00   1.04   65.3    35    0.0   349     0.0   99999.0    0.00 
 152   12:10   1.01   66.9    35    0.0   355     1.0   99999.0    0.00 
 152   12:20   0.89   67.0    33    0.5   354     7.1   99999.0    0.00 
 152   12:30   0.74   66.7    34    0.0   351     1.0   99999.0    0.00 
 152   12:40   0.91   66.9    32    0.0   358     0.0   99999.0    0.00 
 152   12:50   1.11   69.6    32    1.5   357     8.5   99999.0    0.00 
 152   13:00   0.91   69.9    32    0.1   351     6.3   99999.0    0.00 
 152   13:10   0.59   69.3    32    1.3   357    11.0   99999.0    0.00 
 152   13:20   0.71   70.3    29    0.1     7     5.3   99999.0    0.00 
 152   13:30   0.80   71.7    23    0.3     6     9.6   99999.0    0.00 
 152   13:40   0.69   71.3    28    0.0     3     1.0   99999.0    0.00 
 152   13:50   0.65   71.7    22    0.4    11    10.6   99999.0    0.00 
 152   14:00   0.69   72.1    23    6.6     6    14.6   99999.0    0.00 
 152   14:10   0.60   71.4    23    6.7    14    16.4   99999.0    0.00 
 152   14:20   0.64   71.3    25   11.6    15    16.4   99999.0    0.00 
 152   14:30   0.50   70.0    27   11.9     8    18.5   99999.0    0.00 
 152   14:40   0.43   69.3    29    9.5     8    18.9   99999.0    0.00 
 152   14:50   0.45   68.9    30    2.6     7    14.9   99999.0    0.00 
 152   15:00   0.33   68.5    32    0.5     6    10.6   99999.0    0.00 
 152   15:10   0.25   67.8    33    8.5     4    16.7   99999.0    0.00 
 152   15:20   0.21   66.9    34   11.5     9    19.2   99999.0    0.00 
 152   15:30   0.15   65.9    38   14.3     4    23.2   99999.0    0.00 
 152   15:40   0.14   65.2    42   12.9    12    21.7   99999.0    0.00 
 152   15:50   0.16   64.6    46   13.9     3    23.5   99999.0    0.00 
 152   16:00   0.19   64.5    47   14.8    10    24.6   99999.0    0.00 
 152   16:10   0.22   64.7    48   13.0    12    23.5   99999.0    0.00 
 152   16:20   0.21   64.6    48   16.3     5    27.8   99999.0    0.00 
 152   16:30   0.22   64.0    49   18.4    10    25.7   99999.0    0.00 
 152   16:40   0.22   63.8    48   16.9     7    23.9   99999.0    0.00 
 152   16:50   0.32   64.2    48   17.1    10    25.3   99999.0    0.00 
 152   17:00   0.26   64.4    47   17.5     4    24.2   99999.0    0.00 
 152   17:10   0.21   64.4    48   16.4     7    23.9   99999.0    0.00 
 152   17:20   0.16   63.3    50   13.8     2    21.7   99999.0    0.00 
 152   17:30   0.12   63.3    49   12.4     4    21.4   99999.0    0.00 
 152   17:40   0.02   62.5    51   12.5     2    22.4   99999.0    0.00 
 152   17:50   0.02   58.2    63   12.2     2    22.8   99999.0    0.00 
 152   18:00   0.04   56.2    69    4.0     8    12.8   99999.0    0.01 
 152   18:10   0.05   56.1    73    1.4   133     8.1   99999.0    0.00 
 152   18:20   0.05   56.1    80    0.0    64     0.0   99999.0    0.00 
 152   18:30   0.07   56.4    80    0.0   178     0.0   99999.0    0.00 
 152   18:40   0.05   57.1    77    0.0   196     1.0   99999.0    0.00 
 152   18:50   0.04   56.6    82    0.0    42     0.0   99999.0    0.00 
 152   19:00   0.02   56.6    80    0.0   117     0.0   99999.0    0.00 
 152   19:10   0.01   56.5    80    0.0   134     0.0   99999.0    0.00 
 152   19:20   0.00   56.8    69    0.5    24     8.1   99999.0    0.00 
 152   19:30   0.00   56.6    71    0.0   166     0.0   99999.0    0.00 
 152   19:40   0.00   55.9    77    0.0    51     0.0   99999.0    0.00 
 152   19:50   0.00   56.2    68    1.4    31    13.5   99999.0    0.00 
 152   20:00   0.00   57.3    61    0.0    15     0.0   99999.0    0.00 
 152   20:10   0.00   55.6    71    0.0   329     0.0   99999.0    0.00 
 152   20:20   0.00   54.4    75    0.0   340     0.0   99999.0    0.00 
 152   20:30   0.00   54.1    77    0.0   320     0.0   99999.0    0.00 
 152   20:40   0.00   53.9    79    0.0    15     0.0   99999.0    0.00 
 152   20:50   0.00   54.8    74    0.0    29     0.0   99999.0    0.00 
 152   21:00   0.00   55.3    72    0.0    29     0.0   99999.0    0.00 
 152   21:10   0.00   55.0    73    0.0    23     0.0   99999.0    0.00 
 152   21:20   0.00   55.3    70    0.0    29     0.0   99999.0    0.00 
 152   21:30   0.00   55.1    71    0.0     9     0.0   99999.0    0.00 
 152   21:40   0.00   54.0    79    0.0   101     0.0   99999.0    0.00 
 152   21:50   0.00   52.7    82    0.0    15     0.0   99999.0    0.00 
 152   22:00   0.00   52.2    85    0.0    15     0.0   99999.0    0.00 
 152   22:10   0.00   52.6    84    0.0    21     0.0   99999.0    0.00 
 152   22:20   0.00   52.6    83    0.0   135     0.0   99999.0    0.00 
 152   22:30   0.00   52.6    83    0.0    74     0.0   99999.0    0.00 
 152   22:40   0.00   52.6    83    0.0    24     0.0   99999.0    0.00 
 152   22:50   0.00   53.1    80    0.0   338     0.0   99999.0    0.00 
 152   23:00   0.00   53.5    73    1.0    17    10.3   99999.0    0.00 
 152   23:10   0.00   56.4    64   10.8    15    16.4   99999.0    0.00 
 152   23:20   0.00   58.3    60   10.7    17    16.0   99999.0    0.00 
 152   23:30   0.00   58.3    60   10.6    22    16.0   99999.0    0.00 
 152   23:40   0.00   58.6    56   12.3    17    19.2   99999.0    0.00 
 152   23:50   0.00   58.7    52   10.9     5    14.9   99999.0    0.00 
 153    0:00   0.00   58.6    53    8.3     6    13.1   99999.0    0.00 
 153    0:10   0.00   58.6    51    7.0     2    16.0   99999.0    0.00 
 153    0:20   0.00   58.7    51    6.5     1    16.0   99999.0    0.00 
 153    0:30   0.00   58.7    50    1.0     4    13.5   99999.0    0.00 
 153    0:40   0.00   58.8    48    8.3     4    18.5   99999.0    0.00 
 153    0:50   0.00   58.8    48   12.0     7    19.9   99999.0    0.00 
 153    1:00   0.00   58.7    46   12.8     5    20.3   99999.0    0.00 
 153    1:10   0.00   58.5    46   11.6     8    18.5   99999.0    0.00 
 153    1:20   0.00   59.0    43   11.3     3    18.5   99999.0    0.00 
 153    1:30   0.00   59.1    42   10.4     6    20.3   99999.0    0.00 
 153    1:40   0.00   58.6    40   16.4     6    26.0   99999.0    0.00 
 153    1:50   0.00   58.0    42   12.8     8    23.5   99999.0    0.00 
 153    2:00   0.00   57.8    43    7.4     3    17.8   99999.0    0.00 
 153    2:10   0.00   57.8    43    2.9     3    16.7   99999.0    0.00 
 153    2:20   0.00   57.8    43    6.0     1    18.5   99999.0    0.00 
 153    2:30   0.00   57.9    42    4.8     3    17.4   99999.0    0.00 
 153    2:40   0.00   58.0    46    1.4     5    11.7   99999.0    0.00 
 153    2:50   0.00   57.6    48    0.0   348     0.0   99999.0    0.00 
 153    3:00   0.00   57.0    56    0.0   354     0.0   99999.0    0.00 
 153    3:10   0.00   56.4    56    0.0    12     0.0   99999.0    0.00 
 153    3:20   0.00   55.8    59    0.0   334     0.0   99999.0    0.00 
 153    3:30   0.00   55.8    59    0.0   343     0.0   99999.0    0.00 
 153    3:40   0.00   54.8    61    0.0    16     0.0   99999.0    0.00 
 153    3:50   0.00   56.2    52    0.0   293     1.0   99999.0    0.00 
 153    4:00   0.00   57.1    52    0.0   336     0.0   99999.0    0.00 
 153    4:10   0.00   56.3    58    0.0   314     0.0   99999.0    0.00 
 153    4:20   0.00   55.3    58    0.0   220     0.0   99999.0    0.00 
 153    4:30   0.00   55.6    58    0.0   356     0.0   99999.0    0.00 
 153    4:40   0.00   54.9    61    0.0   356     0.0   99999.0    0.00 
 153    4:50   0.01   53.7    62    0.0     7     0.0   99999.0    0.00 
 153    5:00   0.03   53.4    62    0.0    10     0.0   99999.0    0.00 
 153    5:10   0.05   53.0    66    0.0    10     0.0   99999.0    0.00 
 153    5:20   0.04   52.6    70    0.0   357     0.0   99999.0    0.00 
 153    5:30   0.05   52.7    70    0.0   357     0.0   99999.0    0.00 
 153    5:40   0.03   52.8    70    0.0    11     0.0   99999.0    0.00 
 153    5:50   0.05   53.3    69    0.0     4     0.0   99999.0    0.00 
 153    6:00   0.08   53.7    72    0.0   351     0.0   99999.0    0.00 
 153    6:10   0.06   54.4    67    0.0   350     0.0   99999.0    0.00 
 153    6:20   0.06   54.5    64    0.0    12     0.0   99999.0    0.00 
 153    6:30   0.07   54.8    65    0.0     1     0.0   99999.0    0.00 
 153    6:40   0.09   54.9    65    0.0    20     0.0   99999.0    0.00 
 153    6:50   0.14   55.7    61    0.0     4     0.0   99999.0    0.00 
 153    7:00   0.19   56.1    64    0.0   352     0.0   99999.0    0.00 
 153    7:10   0.23   56.7    64    0.0   343     0.0   99999.0    0.00 
 153    7:20   0.20   56.8    63    0.0   340     0.0   99999.0    0.00 
 153    7:30   0.19   56.7    63    0.0   339     0.0   99999.0    0.00 
 153    7:40   0.20   56.9    62    0.0   346     0.0   99999.0    0.00 
 153    7:50   0.20   57.1    62    0.0   344     0.0   99999.0    0.00 
 153    8:00   0.24   57.4    62    0.0     0     0.0   99999.0    0.00 
 153    8:10   0.32   57.8    59    0.0   348     1.3   99999.0    0.00 
 153    8:20   0.64   58.9    58    1.0   338     6.3   99999.0    0.00 
 153    8:30   0.91   60.5    56    1.8   345    10.3   99999.0    0.00 
 153    8:40   0.78   60.8    54    0.4   356     9.2   99999.0    0.00 
 153    8:50   0.67   60.9    54    0.1   351     4.9   99999.0    0.00 
 153    9:00   0.78   61.6    54    0.4   336     9.6   99999.0    0.00 
 153    9:10   0.80   62.2    50    0.6   338     9.9   99999.0    0.00 
 153    9:20   0.89   63.2    47    0.2   329     7.4   99999.0    0.00 
 153    9:30   0.77   63.6    47    0.0   328     1.0   99999.0    0.00 
 153    9:40   0.80   63.6    47    0.2   335     5.6   99999.0    0.00 
 153    9:50   0.81   63.7    44    0.0   337     0.0   99999.0    0.00 
 153   10:00   0.61   63.7    44    0.0   340     0.0   99999.0    0.00 
 153   10:10   0.72   64.1    44    0.0   337     0.0   99999.0    0.00 
 153   10:20   0.72   64.5    43    0.3   342     8.1   99999.0    0.00 
 153   10:30   0.58   64.3    43    0.0   342     1.0   99999.0    0.00 
 153   10:40   0.61   64.4    42    0.0   332     0.0   99999.0    0.00 
 153   10:50   0.77   65.2    43    0.0   339     1.0   99999.0    0.00 
 153   11:00   0.78   65.5    40    0.0   336     0.0   99999.0    0.00 

Return to Wilson Commons Park graphs page.


Western Regional Climate Center,wrcc@dri.edu